sensor_id;sensor_type;location;lat;lon;timestamp;temperature;humidity
73780;SHT30;62093;37.614;15.072;2024-03-17T00:00:21;16.11;59.73
73780;SHT30;62093;37.614;15.072;2024-03-17T00:02:48;16.11;59.64
73780;SHT30;62093;37.614;15.072;2024-03-17T00:05:14;16.09;59.63
73780;SHT30;62093;37.614;15.072;2024-03-17T00:07:41;16.09;59.56
73780;SHT30;62093;37.614;15.072;2024-03-17T00:10:07;16.08;59.65
73780;SHT30;62093;37.614;15.072;2024-03-17T00:12:34;16.06;59.58
73780;SHT30;62093;37.614;15.072;2024-03-17T00:15:00;16.05;59.70
73780;SHT30;62093;37.614;15.072;2024-03-17T00:17:26;16.04;59.53
73780;SHT30;62093;37.614;15.072;2024-03-17T00:19:52;16.05;59.60
73780;SHT30;62093;37.614;15.072;2024-03-17T00:22:18;16.08;59.46
73780;SHT30;62093;37.614;15.072;2024-03-17T00:24:45;16.04;59.86
73780;SHT30;62093;37.614;15.072;2024-03-17T00:27:11;16.04;59.80
73780;SHT30;62093;37.614;15.072;2024-03-17T00:29:40;16.02;59.79
73780;SHT30;62093;37.614;15.072;2024-03-17T00:32:06;16.01;59.92
73780;SHT30;62093;37.614;15.072;2024-03-17T00:34:33;16.02;60.01
73780;SHT30;62093;37.614;15.072;2024-03-17T00:36:59;16.04;59.79
73780;SHT30;62093;37.614;15.072;2024-03-17T00:39:28;15.98;59.82
73780;SHT30;62093;37.614;15.072;2024-03-17T00:41:56;16.00;59.71
73780;SHT30;62093;37.614;15.072;2024-03-17T00:44:22;15.98;59.77
73780;SHT30;62093;37.614;15.072;2024-03-17T00:46:49;16.00;59.90
73780;SHT30;62093;37.614;15.072;2024-03-17T00:49:16;15.98;60.09
73780;SHT30;62093;37.614;15.072;2024-03-17T00:51:42;15.97;59.93
73780;SHT30;62093;37.614;15.072;2024-03-17T00:54:09;15.95;59.77
73780;SHT30;62093;37.614;15.072;2024-03-17T00:56:35;15.94;60.10
73780;SHT30;62093;37.614;15.072;2024-03-17T00:59:01;15.97;59.92
73780;SHT30;62093;37.614;15.072;2024-03-17T01:01:30;15.98;59.90
73780;SHT30;62093;37.614;15.072;2024-03-17T01:03:56;15.95;59.85
73780;SHT30;62093;37.614;15.072;2024-03-17T01:06:22;15.97;59.95
73780;SHT30;62093;37.614;15.072;2024-03-17T01:08:48;15.92;59.84
73780;SHT30;62093;37.614;15.072;2024-03-17T01:11:16;15.94;59.95
73780;SHT30;62093;37.614;15.072;2024-03-17T01:13:45;15.95;59.67
73780;SHT30;62093;37.614;15.072;2024-03-17T01:16:13;15.92;59.82
73780;SHT30;62093;37.614;15.072;2024-03-17T01:18:39;15.92;59.60
73780;SHT30;62093;37.614;15.072;2024-03-17T01:21:06;15.92;59.73
73780;SHT30;62093;37.614;15.072;2024-03-17T01:23:35;15.90;59.76
73780;SHT30;62093;37.614;15.072;2024-03-17T01:26:01;15.90;59.89
73780;SHT30;62093;37.614;15.072;2024-03-17T01:28:28;15.87;59.67
73780;SHT30;62093;37.614;15.072;2024-03-17T01:30:54;15.90;59.78
73780;SHT30;62093;37.614;15.072;2024-03-17T01:33:20;15.90;59.59
73780;SHT30;62093;37.614;15.072;2024-03-17T01:35:47;15.88;59.78
73780;SHT30;62093;37.614;15.072;2024-03-17T01:38:13;15.90;59.95
73780;SHT30;62093;37.614;15.072;2024-03-17T01:40:39;15.87;59.86
73780;SHT30;62093;37.614;15.072;2024-03-17T01:43:10;15.85;59.76
73780;SHT30;62093;37.614;15.072;2024-03-17T01:45:40;15.85;59.97
73780;SHT30;62093;37.614;15.072;2024-03-17T01:48:13;15.82;60.08
73780;SHT30;62093;37.614;15.072;2024-03-17T01:50:41;15.82;60.09
73780;SHT30;62093;37.614;15.072;2024-03-17T01:53:10;15.82;59.95
73780;SHT30;62093;37.614;15.072;2024-03-17T01:55:42;15.84;60.03
73780;SHT30;62093;37.614;15.072;2024-03-17T01:58:08;15.84;59.93
73780;SHT30;62093;37.614;15.072;2024-03-17T02:00:37;15.84;60.02
73780;SHT30;62093;37.614;15.072;2024-03-17T02:03:07;15.81;60.09
73780;SHT30;62093;37.614;15.072;2024-03-17T02:05:36;15.84;60.18
73780;SHT30;62093;37.614;15.072;2024-03-17T02:08:07;15.81;60.03
73780;SHT30;62093;37.614;15.072;2024-03-17T02:10:34;15.80;59.80
73780;SHT30;62093;37.614;15.072;2024-03-17T02:13:01;15.82;60.05
73780;SHT30;62093;37.614;15.072;2024-03-17T02:15:30;15.81;60.13
73780;SHT30;62093;37.614;15.072;2024-03-17T02:17:56;15.82;60.29
73780;SHT30;62093;37.614;15.072;2024-03-17T02:20:22;15.81;59.90
73780;SHT30;62093;37.614;15.072;2024-03-17T02:23:08;15.80;59.93
73780;SHT30;62093;37.614;15.072;2024-03-17T02:25:34;15.78;59.81
73780;SHT30;62093;37.614;15.072;2024-03-17T02:28:01;15.81;59.85
73780;SHT30;62093;37.614;15.072;2024-03-17T02:30:27;15.78;59.75
73780;SHT30;62093;37.614;15.072;2024-03-17T02:32:54;15.75;59.79
73780;SHT30;62093;37.614;15.072;2024-03-17T02:35:26;15.78;59.79
73780;SHT30;62093;37.614;15.072;2024-03-17T02:37:52;15.81;59.75
73780;SHT30;62093;37.614;15.072;2024-03-17T02:40:18;15.80;59.89
73780;SHT30;62093;37.614;15.072;2024-03-17T02:42:45;15.78;59.70
73780;SHT30;62093;37.614;15.072;2024-03-17T02:45:11;15.78;59.83
73780;SHT30;62093;37.614;15.072;2024-03-17T02:47:38;15.80;60.27
73780;SHT30;62093;37.614;15.072;2024-03-17T02:50:06;15.78;59.95
73780;SHT30;62093;37.614;15.072;2024-03-17T02:52:32;15.77;59.94
73780;SHT30;62093;37.614;15.072;2024-03-17T02:54:58;15.77;59.94
73780;SHT30;62093;37.614;15.072;2024-03-17T02:57:26;15.74;59.82
73780;SHT30;62093;37.614;15.072;2024-03-17T02:59:55;15.75;59.89
73780;SHT30;62093;37.614;15.072;2024-03-17T03:02:22;15.77;59.86
73780;SHT30;62093;37.614;15.072;2024-03-17T03:04:50;15.77;59.70
73780;SHT30;62093;37.614;15.072;2024-03-17T03:07:16;15.75;59.88
73780;SHT30;62093;37.614;15.072;2024-03-17T03:09:42;15.75;59.83
73780;SHT30;62093;37.614;15.072;2024-03-17T03:12:08;15.74;59.93
73780;SHT30;62093;37.614;15.072;2024-03-17T03:14:34;15.75;59.92
73780;SHT30;62093;37.614;15.072;2024-03-17T03:17:00;15.74;59.92
73780;SHT30;62093;37.614;15.072;2024-03-17T03:19:27;15.74;59.89
73780;SHT30;62093;37.614;15.072;2024-03-17T03:21:55;15.70;59.74
73780;SHT30;62093;37.614;15.072;2024-03-17T03:24:21;15.72;59.85
73780;SHT30;62093;37.614;15.072;2024-03-17T03:26:47;15.71;59.96
73780;SHT30;62093;37.614;15.072;2024-03-17T03:29:14;15.70;60.16
73780;SHT30;62093;37.614;15.072;2024-03-17T03:31:40;15.70;60.10
73780;SHT30;62093;37.614;15.072;2024-03-17T03:34:07;15.68;60.10
73780;SHT30;62093;37.614;15.072;2024-03-17T03:36:38;15.70;59.95
73780;SHT30;62093;37.614;15.072;2024-03-17T03:39:04;15.67;60.11
73780;SHT30;62093;37.614;15.072;2024-03-17T03:41:31;15.68;60.35
73780;SHT30;62093;37.614;15.072;2024-03-17T03:43:58;15.65;60.17
73780;SHT30;62093;37.614;15.072;2024-03-17T03:46:25;15.64;60.06
73780;SHT30;62093;37.614;15.072;2024-03-17T03:48:52;15.64;60.05
73780;SHT30;62093;37.614;15.072;2024-03-17T03:51:18;15.61;60.23
73780;SHT30;62093;37.614;15.072;2024-03-17T03:53:44;15.63;60.23
73780;SHT30;62093;37.614;15.072;2024-03-17T03:56:11;15.64;60.17
73780;SHT30;62093;37.614;15.072;2024-03-17T03:58:39;15.64;59.99
73780;SHT30;62093;37.614;15.072;2024-03-17T04:01:09;15.63;60.44
73780;SHT30;62093;37.614;15.072;2024-03-17T04:03:37;15.61;60.10
73780;SHT30;62093;37.614;15.072;2024-03-17T04:06:08;15.63;60.22
73780;SHT30;62093;37.614;15.072;2024-03-17T04:08:34;15.61;60.20
73780;SHT30;62093;37.614;15.072;2024-03-17T04:11:02;15.60;60.25
73780;SHT30;62093;37.614;15.072;2024-03-17T04:13:29;15.57;60.29
73780;SHT30;62093;37.614;15.072;2024-03-17T04:16:08;15.61;60.23
73780;SHT30;62093;37.614;15.072;2024-03-17T04:18:34;15.58;60.20
73780;SHT30;62093;37.614;15.072;2024-03-17T04:21:05;15.60;60.33
73780;SHT30;62093;37.614;15.072;2024-03-17T04:23:34;15.61;60.21
73780;SHT30;62093;37.614;15.072;2024-03-17T04:26:01;15.58;60.43
73780;SHT30;62093;37.614;15.072;2024-03-17T04:28:28;15.57;60.29
73780;SHT30;62093;37.614;15.072;2024-03-17T04:31:08;15.55;60.33
73780;SHT30;62093;37.614;15.072;2024-03-17T04:33:34;15.55;60.35
73780;SHT30;62093;37.614;15.072;2024-03-17T04:36:01;15.54;60.45
73780;SHT30;62093;37.614;15.072;2024-03-17T04:38:30;15.55;60.22
73780;SHT30;62093;37.614;15.072;2024-03-17T04:40:57;15.57;60.44
73780;SHT30;62093;37.614;15.072;2024-03-17T04:43:34;15.53;60.36
73780;SHT30;62093;37.614;15.072;2024-03-17T04:46:02;15.53;60.37
73780;SHT30;62093;37.614;15.072;2024-03-17T04:48:32;15.54;60.47
73780;SHT30;62093;37.614;15.072;2024-03-17T04:50:59;15.51;60.43
73780;SHT30;62093;37.614;15.072;2024-03-17T04:53:26;15.51;60.33
73780;SHT30;62093;37.614;15.072;2024-03-17T04:56:03;15.50;60.49
73780;SHT30;62093;37.614;15.072;2024-03-17T04:58:33;15.51;60.61
73780;SHT30;62093;37.614;15.072;2024-03-17T05:01:08;15.51;60.57
73780;SHT30;62093;37.614;15.072;2024-03-17T05:03:34;15.50;60.50
73780;SHT30;62093;37.614;15.072;2024-03-17T05:06:02;15.49;60.35
73780;SHT30;62093;37.614;15.072;2024-03-17T05:08:33;15.50;60.60
73780;SHT30;62093;37.614;15.072;2024-03-17T05:11:04;15.50;60.36
73780;SHT30;62093;37.614;15.072;2024-03-17T05:13:32;15.50;60.43
73780;SHT30;62093;37.614;15.072;2024-03-17T05:16:00;15.50;60.39
73780;SHT30;62093;37.614;15.072;2024-03-17T05:18:26;15.49;60.32
73780;SHT30;62093;37.614;15.072;2024-03-17T05:21:03;15.47;60.49
73780;SHT30;62093;37.614;15.072;2024-03-17T05:23:31;15.50;60.50
73780;SHT30;62093;37.614;15.072;2024-03-17T05:25:58;15.49;60.28
73780;SHT30;62093;37.614;15.072;2024-03-17T05:28:26;15.47;60.66
73780;SHT30;62093;37.614;15.072;2024-03-17T05:30:52;15.47;60.38
73780;SHT30;62093;37.614;15.072;2024-03-17T05:33:19;15.47;60.15
73780;SHT30;62093;37.614;15.072;2024-03-17T05:35:58;15.49;60.91
73780;SHT30;62093;37.614;15.072;2024-03-17T05:38:26;15.47;60.62
73780;SHT30;62093;37.614;15.072;2024-03-17T05:40:57;15.46;60.81
73780;SHT30;62093;37.614;15.072;2024-03-17T05:43:24;15.47;60.70
73780;SHT30;62093;37.614;15.072;2024-03-17T05:45:52;15.46;60.86
73780;SHT30;62093;37.614;15.072;2024-03-17T05:48:18;15.46;60.79
73780;SHT30;62093;37.614;15.072;2024-03-17T05:50:45;15.44;60.89
73780;SHT30;62093;37.614;15.072;2024-03-17T05:53:11;15.47;60.88
73780;SHT30;62093;37.614;15.072;2024-03-17T05:55:37;15.46;60.89
73780;SHT30;62093;37.614;15.072;2024-03-17T05:58:04;15.47;60.87
73780;SHT30;62093;37.614;15.072;2024-03-17T06:00:30;15.49;60.80
73780;SHT30;62093;37.614;15.072;2024-03-17T06:02:57;15.47;60.82
73780;SHT30;62093;37.614;15.072;2024-03-17T06:05:23;15.51;60.77
73780;SHT30;62093;37.614;15.072;2024-03-17T06:07:49;15.51;60.89
73780;SHT30;62093;37.614;15.072;2024-03-17T06:10:15;15.51;61.03
73780;SHT30;62093;37.614;15.072;2024-03-17T06:12:41;15.53;60.81
73780;SHT30;62093;37.614;15.072;2024-03-17T06:15:08;15.51;60.93
73780;SHT30;62093;37.614;15.072;2024-03-17T06:17:35;15.55;60.89
73780;SHT30;62093;37.614;15.072;2024-03-17T06:20:01;15.54;60.81
73780;SHT30;62093;37.614;15.072;2024-03-17T06:22:29;15.55;60.76
73780;SHT30;62093;37.614;15.072;2024-03-17T06:24:55;15.54;60.79
73780;SHT30;62093;37.614;15.072;2024-03-17T06:27:21;15.57;60.83
73780;SHT30;62093;37.614;15.072;2024-03-17T06:29:47;15.58;60.85
73780;SHT30;62093;37.614;15.072;2024-03-17T06:32:13;15.57;60.73
73780;SHT30;62093;37.614;15.072;2024-03-17T06:34:39;15.60;60.74
73780;SHT30;62093;37.614;15.072;2024-03-17T06:37:05;15.61;60.79
73780;SHT30;62093;37.614;15.072;2024-03-17T06:39:31;15.63;60.85
73780;SHT30;62093;37.614;15.072;2024-03-17T06:41:57;15.65;60.72
73780;SHT30;62093;37.614;15.072;2024-03-17T06:44:23;15.63;60.66
73780;SHT30;62093;37.614;15.072;2024-03-17T06:46:53;15.64;60.69
73780;SHT30;62093;37.614;15.072;2024-03-17T06:49:19;15.64;60.73
73780;SHT30;62093;37.614;15.072;2024-03-17T06:51:44;15.65;60.77
73780;SHT30;62093;37.614;15.072;2024-03-17T06:54:10;15.67;60.82
73780;SHT30;62093;37.614;15.072;2024-03-17T06:56:36;15.68;60.87
73780;SHT30;62093;37.614;15.072;2024-03-17T06:59:03;15.68;60.73
73780;SHT30;62093;37.614;15.072;2024-03-17T07:01:29;15.70;60.55
73780;SHT30;62093;37.614;15.072;2024-03-17T07:03:55;15.70;60.67
73780;SHT30;62093;37.614;15.072;2024-03-17T07:06:21;15.71;60.72
73780;SHT30;62093;37.614;15.072;2024-03-17T07:08:47;15.72;60.76
73780;SHT30;62093;37.614;15.072;2024-03-17T07:11:14;15.75;60.93
73780;SHT30;62093;37.614;15.072;2024-03-17T07:13:40;15.71;60.76
73780;SHT30;62093;37.614;15.072;2024-03-17T07:16:07;15.74;60.77
73780;SHT30;62093;37.614;15.072;2024-03-17T07:18:35;15.75;60.75
73780;SHT30;62093;37.614;15.072;2024-03-17T07:21:04;15.78;60.76
73780;SHT30;62093;37.614;15.072;2024-03-17T07:23:31;15.78;60.72
73780;SHT30;62093;37.614;15.072;2024-03-17T07:26:00;15.80;60.87
73780;SHT30;62093;37.614;15.072;2024-03-17T07:28:27;15.80;60.85
73780;SHT30;62093;37.614;15.072;2024-03-17T07:30:55;15.80;60.81
73780;SHT30;62093;37.614;15.072;2024-03-17T07:33:22;15.82;60.73
73780;SHT30;62093;37.614;15.072;2024-03-17T07:35:53;15.82;60.84
73780;SHT30;62093;37.614;15.072;2024-03-17T07:38:24;15.81;60.79
73780;SHT30;62093;37.614;15.072;2024-03-17T07:41:06;15.84;60.74
73780;SHT30;62093;37.614;15.072;2024-03-17T07:43:37;15.84;60.75
73780;SHT30;62093;37.614;15.072;2024-03-17T07:46:08;15.87;60.73
73780;SHT30;62093;37.614;15.072;2024-03-17T07:48:36;15.85;60.82
73780;SHT30;62093;37.614;15.072;2024-03-17T07:51:15;15.85;60.79
73780;SHT30;62093;37.614;15.072;2024-03-17T07:53:46;15.88;60.79
73780;SHT30;62093;37.614;15.072;2024-03-17T07:56:14;15.87;60.79
73780;SHT30;62093;37.614;15.072;2024-03-17T07:58:42;15.88;60.79
73780;SHT30;62093;37.614;15.072;2024-03-17T08:01:12;15.92;60.81
73780;SHT30;62093;37.614;15.072;2024-03-17T08:03:40;15.91;60.83
73780;SHT30;62093;37.614;15.072;2024-03-17T08:06:08;15.92;60.84
73780;SHT30;62093;37.614;15.072;2024-03-17T08:08:34;15.91;60.74
73780;SHT30;62093;37.614;15.072;2024-03-17T08:11:01;15.95;60.78
73780;SHT30;62093;37.614;15.072;2024-03-17T08:13:31;15.92;60.80
73780;SHT30;62093;37.614;15.072;2024-03-17T08:16:03;15.98;60.76
73780;SHT30;62093;37.614;15.072;2024-03-17T08:18:32;16.00;60.58
73780;SHT30;62093;37.614;15.072;2024-03-17T08:21:02;16.00;60.68
73780;SHT30;62093;37.614;15.072;2024-03-17T08:23:35;15.97;60.65
73780;SHT30;62093;37.614;15.072;2024-03-17T08:26:05;15.97;60.65
73780;SHT30;62093;37.614;15.072;2024-03-17T08:28:31;16.00;60.64
73780;SHT30;62093;37.614;15.072;2024-03-17T08:30:58;16.01;60.60
73780;SHT30;62093;37.614;15.072;2024-03-17T08:33:25;16.00;60.65
73780;SHT30;62093;37.614;15.072;2024-03-17T08:36:07;16.00;60.67
73780;SHT30;62093;37.614;15.072;2024-03-17T08:38:36;16.02;60.70
73780;SHT30;62093;37.614;15.072;2024-03-17T08:41:07;16.02;60.58
73780;SHT30;62093;37.614;15.072;2024-03-17T08:43:35;16.02;60.67
73780;SHT30;62093;37.614;15.072;2024-03-17T08:46:04;16.04;60.60
73780;SHT30;62093;37.614;15.072;2024-03-17T08:48:33;16.06;60.56
73780;SHT30;62093;37.614;15.072;2024-03-17T08:51:00;16.09;60.57
73780;SHT30;62093;37.614;15.072;2024-03-17T08:53:30;16.11;60.46
73780;SHT30;62093;37.614;15.072;2024-03-17T08:55:57;16.11;60.47
73780;SHT30;62093;37.614;15.072;2024-03-17T08:58:25;16.11;60.47
73780;SHT30;62093;37.614;15.072;2024-03-17T09:00:51;16.13;60.39
73780;SHT30;62093;37.614;15.072;2024-03-17T09:03:18;16.13;60.47
73780;SHT30;62093;37.614;15.072;2024-03-17T09:05:46;16.15;60.48
73780;SHT30;62093;37.614;15.072;2024-03-17T09:08:20;16.15;60.39
73780;SHT30;62093;37.614;15.072;2024-03-17T09:10:51;16.16;60.34
73780;SHT30;62093;37.614;15.072;2024-03-17T09:13:23;16.19;60.42
73780;SHT30;62093;37.614;15.072;2024-03-17T09:16:02;16.18;60.40
73780;SHT30;62093;37.614;15.072;2024-03-17T09:18:33;16.21;60.41
73780;SHT30;62093;37.614;15.072;2024-03-17T09:21:01;16.21;60.39
73780;SHT30;62093;37.614;15.072;2024-03-17T09:23:28;16.21;60.34
73780;SHT30;62093;37.614;15.072;2024-03-17T09:26:01;16.22;60.24
73780;SHT30;62093;37.614;15.072;2024-03-17T09:28:28;16.22;60.26
73780;SHT30;62093;37.614;15.072;2024-03-17T09:30:56;16.23;60.32
73780;SHT30;62093;37.614;15.072;2024-03-17T09:33:23;16.25;60.30
73780;SHT30;62093;37.614;15.072;2024-03-17T09:36:02;16.23;60.30
73780;SHT30;62093;37.614;15.072;2024-03-17T09:38:30;16.26;60.28
73780;SHT30;62093;37.614;15.072;2024-03-17T09:40:57;16.25;60.29
73780;SHT30;62093;37.614;15.072;2024-03-17T09:43:25;16.26;60.22
73780;SHT30;62093;37.614;15.072;2024-03-17T09:45:53;16.26;60.23
73780;SHT30;62093;37.614;15.072;2024-03-17T09:48:27;16.28;60.25
73780;SHT30;62093;37.614;15.072;2024-03-17T09:51:01;16.32;60.23
73780;SHT30;62093;37.614;15.072;2024-03-17T09:53:29;16.32;60.23
73780;SHT30;62093;37.614;15.072;2024-03-17T09:56:05;16.29;60.24
73780;SHT30;62093;37.614;15.072;2024-03-17T09:58:34;16.30;60.26
73780;SHT30;62093;37.614;15.072;2024-03-17T10:01:00;16.32;60.27
73780;SHT30;62093;37.614;15.072;2024-03-17T10:03:49;16.32;60.24
73780;SHT30;62093;37.614;15.072;2024-03-17T10:06:21;16.33;60.23
73780;SHT30;62093;37.614;15.072;2024-03-17T10:08:52;16.33;60.24
73780;SHT30;62093;37.614;15.072;2024-03-17T10:11:41;16.33;60.24
73780;SHT30;62093;37.614;15.072;2024-03-17T10:14:08;16.38;60.25
73780;SHT30;62093;37.614;15.072;2024-03-17T10:16:36;16.36;60.22
73780;SHT30;62093;37.614;15.072;2024-03-17T10:19:11;16.38;60.21
73780;SHT30;62093;37.614;15.072;2024-03-17T10:21:39;16.38;60.24
73780;SHT30;62093;37.614;15.072;2024-03-17T10:24:13;16.39;60.26
73780;SHT30;62093;37.614;15.072;2024-03-17T10:26:50;16.41;60.27
73780;SHT30;62093;37.614;15.072;2024-03-17T10:29:26;16.36;60.30
73780;SHT30;62093;37.614;15.072;2024-03-17T10:31:58;16.39;60.30
73780;SHT30;62093;37.614;15.072;2024-03-17T10:34:28;16.39;60.31
73780;SHT30;62093;37.614;15.072;2024-03-17T10:37:17;16.39;60.29
73780;SHT30;62093;37.614;15.072;2024-03-17T10:39:53;16.41;60.51
73780;SHT30;62093;37.614;15.072;2024-03-17T10:42:27;16.36;60.39
73780;SHT30;62093;37.614;15.072;2024-03-17T10:45:06;16.38;60.36
73780;SHT30;62093;37.614;15.072;2024-03-17T10:47:34;16.38;60.31
73780;SHT30;62093;37.614;15.072;2024-03-17T10:50:01;16.35;60.37
73780;SHT30;62093;37.614;15.072;2024-03-17T10:52:33;16.36;60.33
73780;SHT30;62093;37.614;15.072;2024-03-17T10:55:02;16.38;60.35
73780;SHT30;62093;37.614;15.072;2024-03-17T11:00:05;16.35;60.31
73780;SHT30;62093;37.614;15.072;2024-03-17T11:02:34;16.38;60.34
73780;SHT30;62093;37.614;15.072;2024-03-17T11:05:16;16.35;60.34
73780;SHT30;62093;37.614;15.072;2024-03-17T11:07:44;16.35;60.35
73780;SHT30;62093;37.614;15.072;2024-03-17T11:10:24;16.35;60.36
73780;SHT30;62093;37.614;15.072;2024-03-17T11:12:53;16.36;60.37
73780;SHT30;62093;37.614;15.072;2024-03-17T11:17:55;16.32;60.48
73780;SHT30;62093;37.614;15.072;2024-03-17T11:21:03;16.30;60.53
73780;SHT30;62093;37.614;15.072;2024-03-17T11:23:42;16.35;60.56
73780;SHT30;62093;37.614;15.072;2024-03-17T11:26:08;16.35;60.57
73780;SHT30;62093;37.614;15.072;2024-03-17T11:31:43;16.32;60.51
73780;SHT30;62093;37.614;15.072;2024-03-17T11:34:33;16.35;60.56
73780;SHT30;62093;37.614;15.072;2024-03-17T11:37:01;16.32;60.62
73780;SHT30;62093;37.614;15.072;2024-03-17T11:39:49;16.30;60.59
73780;SHT30;62093;37.614;15.072;2024-03-17T11:42:16;16.29;60.64
73780;SHT30;62093;37.614;15.072;2024-03-17T11:45:12;16.35;60.51
73780;SHT30;62093;37.614;15.072;2024-03-17T11:47:41;16.33;60.52
73780;SHT30;62093;37.614;15.072;2024-03-17T11:50:09;16.30;60.49
73780;SHT30;62093;37.614;15.072;2024-03-17T11:52:37;16.33;60.54
73780;SHT30;62093;37.614;15.072;2024-03-17T11:55:04;16.35;60.35
73780;SHT30;62093;37.614;15.072;2024-03-17T11:57:30;16.32;60.56
73780;SHT30;62093;37.614;15.072;2024-03-17T11:59:57;16.38;60.60
73780;SHT30;62093;37.614;15.072;2024-03-17T12:02:26;16.38;60.75
73780;SHT30;62093;37.614;15.072;2024-03-17T12:04:54;16.36;60.67
73780;SHT30;62093;37.614;15.072;2024-03-17T12:07:21;16.39;60.67
73780;SHT30;62093;37.614;15.072;2024-03-17T12:09:50;16.35;60.74
73780;SHT30;62093;37.614;15.072;2024-03-17T12:14:43;16.32;60.72
73780;SHT30;62093;37.614;15.072;2024-03-17T12:17:10;16.32;60.74
73780;SHT30;62093;37.614;15.072;2024-03-17T12:19:38;16.30;60.72
73780;SHT30;62093;37.614;15.072;2024-03-17T12:22:05;16.28;60.80
73780;SHT30;62093;37.614;15.072;2024-03-17T12:24:33;16.28;60.76
73780;SHT30;62093;37.614;15.072;2024-03-17T12:27:01;16.28;60.80
73780;SHT30;62093;37.614;15.072;2024-03-17T12:29:38;16.29;60.79
73780;SHT30;62093;37.614;15.072;2024-03-17T12:32:16;16.30;60.81
73780;SHT30;62093;37.614;15.072;2024-03-17T12:34:43;16.29;60.82
73780;SHT30;62093;37.614;15.072;2024-03-17T12:37:16;16.29;60.81
73780;SHT30;62093;37.614;15.072;2024-03-17T12:39:44;16.35;60.83
73780;SHT30;62093;37.614;15.072;2024-03-17T12:42:11;16.33;60.73
73780;SHT30;62093;37.614;15.072;2024-03-17T12:44:47;16.30;60.80
73780;SHT30;62093;37.614;15.072;2024-03-17T12:47:21;16.32;60.78
73780;SHT30;62093;37.614;15.072;2024-03-17T12:49:56;16.30;60.79
73780;SHT30;62093;37.614;15.072;2024-03-17T12:52:33;16.32;60.83
73780;SHT30;62093;37.614;15.072;2024-03-17T12:55:07;16.33;60.85
73780;SHT30;62093;37.614;15.072;2024-03-17T12:57:53;16.35;60.82
73780;SHT30;62093;37.614;15.072;2024-03-17T13:03:26;16.32;60.90
73780;SHT30;62093;37.614;15.072;2024-03-17T13:05:55;16.32;60.97
73780;SHT30;62093;37.614;15.072;2024-03-17T13:08:21;16.33;60.93
73780;SHT30;62093;37.614;15.072;2024-03-17T13:10:47;16.32;60.99
73780;SHT30;62093;37.614;15.072;2024-03-17T13:13:13;16.30;61.03
73780;SHT30;62093;37.614;15.072;2024-03-17T13:15:43;16.33;61.00
73780;SHT30;62093;37.614;15.072;2024-03-17T13:18:09;16.33;61.05
73780;SHT30;62093;37.614;15.072;2024-03-17T13:20:35;16.35;61.09
73780;SHT30;62093;37.614;15.072;2024-03-17T13:23:01;16.33;61.11
73780;SHT30;62093;37.614;15.072;2024-03-17T13:25:29;16.38;61.15
73780;SHT30;62093;37.614;15.072;2024-03-17T13:27:59;16.36;61.12
73780;SHT30;62093;37.614;15.072;2024-03-17T13:30:27;16.35;61.16
73780;SHT30;62093;37.614;15.072;2024-03-17T13:32:55;16.36;61.17
73780;SHT30;62093;37.614;15.072;2024-03-17T13:35:27;16.33;61.21
73780;SHT30;62093;37.614;15.072;2024-03-17T13:37:55;16.35;61.21
73780;SHT30;62093;37.614;15.072;2024-03-17T13:40:22;16.35;61.24
73780;SHT30;62093;37.614;15.072;2024-03-17T13:42:50;16.36;61.21
73780;SHT30;62093;37.614;15.072;2024-03-17T13:45:18;16.38;61.25
73780;SHT30;62093;37.614;15.072;2024-03-17T13:47:59;16.35;61.23
73780;SHT30;62093;37.614;15.072;2024-03-17T13:50:25;16.32;61.30
73780;SHT30;62093;37.614;15.072;2024-03-17T13:52:52;16.35;61.29
73780;SHT30;62093;37.614;15.072;2024-03-17T13:55:20;16.36;61.35
73780;SHT30;62093;37.614;15.072;2024-03-17T13:57:49;16.35;61.37
73780;SHT30;62093;37.614;15.072;2024-03-17T14:00:17;16.38;61.36
73780;SHT30;62093;37.614;15.072;2024-03-17T14:02:45;16.36;61.53
73780;SHT30;62093;37.614;15.072;2024-03-17T14:05:13;16.38;61.43
73780;SHT30;62093;37.614;15.072;2024-03-17T14:07:39;16.39;61.44
73780;SHT30;62093;37.614;15.072;2024-03-17T14:10:10;16.38;61.39
73780;SHT30;62093;37.614;15.072;2024-03-17T14:12:40;16.42;61.27
73780;SHT30;62093;37.614;15.072;2024-03-17T14:15:07;16.39;61.33
73780;SHT30;62093;37.614;15.072;2024-03-17T14:17:40;16.41;61.41
73780;SHT30;62093;37.614;15.072;2024-03-17T14:20:07;16.43;61.48
73780;SHT30;62093;37.614;15.072;2024-03-17T14:22:40;16.42;61.44
73780;SHT30;62093;37.614;15.072;2024-03-17T14:25:12;16.46;61.29
73780;SHT30;62093;37.614;15.072;2024-03-17T14:27:40;16.52;61.12
73780;SHT30;62093;37.614;15.072;2024-03-17T14:30:06;16.57;60.98
73780;SHT30;62093;37.614;15.072;2024-03-17T14:32:33;16.63;60.79
73780;SHT30;62093;37.614;15.072;2024-03-17T14:34:59;16.72;60.69
73780;SHT30;62093;37.614;15.072;2024-03-17T14:37:25;16.74;60.44
73780;SHT30;62093;37.614;15.072;2024-03-17T14:39:52;16.84;60.34
73780;SHT30;62093;37.614;15.072;2024-03-17T14:42:22;16.87;60.23
73780;SHT30;62093;37.614;15.072;2024-03-17T14:44:48;16.95;60.03
73780;SHT30;62093;37.614;15.072;2024-03-17T14:47:15;17.03;59.89
73780;SHT30;62093;37.614;15.072;2024-03-17T14:49:41;17.10;59.70
73780;SHT30;62093;37.614;15.072;2024-03-17T14:52:11;17.23;59.64
73780;SHT30;62093;37.614;15.072;2024-03-17T14:54:37;17.25;59.50
73780;SHT30;62093;37.614;15.072;2024-03-17T14:57:03;17.36;59.53
73780;SHT30;62093;37.614;15.072;2024-03-17T14:59:29;17.31;59.58
73780;SHT30;62093;37.614;15.072;2024-03-17T15:01:55;17.36;59.68
73780;SHT30;62093;37.614;15.072;2024-03-17T15:04:21;17.36;59.68
73780;SHT30;62093;37.614;15.072;2024-03-17T15:06:47;17.39;59.63
73780;SHT30;62093;37.614;15.072;2024-03-17T15:09:12;17.61;59.00
73780;SHT30;62093;37.614;15.072;2024-03-17T15:11:39;17.51;59.89
73780;SHT30;62093;37.614;15.072;2024-03-17T15:14:05;17.41;59.87
73780;SHT30;62093;37.614;15.072;2024-03-17T15:16:37;17.76;58.87
73780;SHT30;62093;37.614;15.072;2024-03-17T15:19:05;17.85;58.79
73780;SHT30;62093;37.614;15.072;2024-03-17T15:21:32;17.85;58.82
73780;SHT30;62093;37.614;15.072;2024-03-17T15:23:58;17.87;58.73
73780;SHT30;62093;37.614;15.072;2024-03-17T15:26:25;17.86;58.84
73780;SHT30;62093;37.614;15.072;2024-03-17T15:28:51;17.90;58.84
73780;SHT30;62093;37.614;15.072;2024-03-17T15:31:17;17.87;58.85
73780;SHT30;62093;37.614;15.072;2024-03-17T15:33:43;17.83;59.11
73780;SHT30;62093;37.614;15.072;2024-03-17T15:36:10;17.82;59.26
73780;SHT30;62093;37.614;15.072;2024-03-17T15:38:37;17.81;59.45